Terminal Aerodrome Forecast
Issued by NWS Charleston, WV

Current Version | Previous Version | Graphics & Text | Print | Product List | Glossary On
Versions: 1 2 3 4 5 6 7 8 9 10 11 12 13 14 15 16 17 18 19 20 21 22
000
FTUS41 KRLX 270848 AAA
TAFPKB
TAF AMD
KPKB 270848Z 2709/2806 VRB03KT 5SM BR BKN100
      TEMPO 2709/2711 2SM SHRA BR SCT002 BKN070
     FM271100 13005KT 3SM SHRA BR VCTS OVC050CB
     FM271400 18007KT 4SM SHRA BR VCTS OVC015CB
     FM271600 21008KT P6SM VCTS BKN025CB
     FM272000 25010G15KT P6SM BKN025=

USA.gov is the U.S. government's official web portal to all federal, state and local government web resources and services.